Time;durP1;ratioP1;P1;durP2;ratioP2;P2;SDS_P1;SDS_P2;PMS_P1;PMS_P2;Temp;Humidity;BMP_temperature;BMP_pressure;BME280_temperature;BME280_humidity;BME280_pressure;Samples;Min_cycle;Max_cycle;Signal;HPM_P1;HPM_P2
2023/03/08 00:01:57;;;;;;;;;;;23.60;82.70;;;;;;1866424;76;20237;-86
2023/03/08 00:04:27;;;;;;;;;;;23.60;83.10;;;;;;1854858;76;20479;-88
2023/03/08 00:06:57;;;;;;;;;;;23.60;83.10;;;;;;1817464;77;20168;-87
2023/03/08 00:09:27;;;;;;;;;;;23.60;82.60;;;;;;1850173;76;20170;-87
2023/03/08 00:11:57;;;;;;;;;;;23.70;82.10;;;;;;1844950;75;20186;-87
2023/03/08 00:14:27;;;;;;;;;;;23.70;80.90;;;;;;1846212;76;20235;-86
2023/03/08 00:16:59;;;;;;;;;;;23.80;80.20;;;;;;1842888;76;20194;-86
2023/03/08 00:19:40;;;;;;;;;;;23.90;79.70;;;;;;1864970;76;20179;-88
2023/03/08 00:22:10;;;;;;;;;;;23.90;79.70;;;;;;1866986;75;20237;-87
2023/03/08 00:24:40;;;;;;;;;;;24.00;79.80;;;;;;1852032;75;20211;-88
2023/03/08 00:27:10;;;;;;;;;;;24.00;78.70;;;;;;1844488;76;20207;-88
2023/03/08 00:29:40;;;;;;;;;;;24.10;78.50;;;;;;1819157;77;20463;-87
2023/03/08 00:32:10;;;;;;;;;;;24.20;78.20;;;;;;1846340;77;20278;-88
2023/03/08 00:34:45;;;;;;;;;;;24.20;77.40;;;;;;1812853;77;20260;-87
2023/03/08 00:37:12;;;;;;;;;;;24.30;77.90;;;;;;1791345;78;20617;-88
2023/03/08 00:39:45;;;;;;;;;;;24.30;77.60;;;;;;1765080;79;20173;-88
2023/03/08 00:42:15;;;;;;;;;;;24.40;77.10;;;;;;1857624;75;20240;-87
2023/03/08 00:44:51;;;;;;;;;;;24.40;77.20;;;;;;1794676;78;20470;-88
2023/03/08 00:47:21;;;;;;;;;;;24.40;77.30;;;;;;1806496;77;20221;-89
2023/03/08 00:49:51;;;;;;;;;;;24.40;77.20;;;;;;1822784;78;20652;-73
2023/03/08 00:52:21;;;;;;;;;;;24.50;77.50;;;;;;1808437;78;20262;-74
2023/03/08 00:54:51;;;;;;;;;;;24.50;77.40;;;;;;1821968;77;20361;-76
2023/03/08 00:57:21;;;;;;;;;;;24.60;77.10;;;;;;1836772;76;20244;-77
2023/03/08 00:59:51;;;;;;;;;;;24.60;76.80;;;;;;1857611;76;20208;-73
2023/03/08 01:02:21;;;;;;;;;;;24.70;77.00;;;;;;1861866;75;20357;-74
2023/03/08 01:04:51;;;;;;;;;;;24.70;77.00;;;;;;1858772;75;20227;-75
2023/03/08 01:07:25;;;;;;;;;;;24.70;77.00;;;;;;1870397;75;20236;-75
2023/03/08 01:09:55;;;;;;;;;;;24.70;76.90;;;;;;1866494;75;20370;-73
2023/03/08 01:12:25;;;;;;;;;;;24.70;76.80;;;;;;1851810;76;20225;-77
2023/03/08 01:14:56;;;;;;;;;;;24.80;76.90;;;;;;1851798;76;20227;-73
2023/03/08 01:17:26;;;;;;;;;;;24.80;76.70;;;;;;1844368;75;20646;-76
2023/03/08 01:19:58;;;;;;;;;;;24.80;76.80;;;;;;1857081;76;20192;-76
2023/03/08 01:22:34;;;;;;;;;;;24.90;76.50;;;;;;1860272;75;20193;-75
2023/03/08 01:25:10;;;;;;;;;;;24.90;76.70;;;;;;1859189;76;20176;-75
2023/03/08 01:27:40;;;;;;;;;;;24.90;75.80;;;;;;1849294;75;20197;-76
2023/03/08 01:30:28;;;;;;;;;;;24.90;77.30;;;;;;1846416;76;20679;-76
2023/03/08 01:32:58;;;;;;;;;;;25.00;77.60;;;;;;1863826;74;20256;-75
2023/03/08 01:35:28;;;;;;;;;;;24.90;77.80;;;;;;1890329;74;20213;-75
2023/03/08 01:37:59;;;;;;;;;;;25.00;77.30;;;;;;1882486;74;20154;-77
2023/03/08 01:40:30;;;;;;;;;;;25.00;76.90;;;;;;1843123;76;20235;-75
2023/03/08 01:43:02;;;;;;;;;;;25.10;77.30;;;;;;1848083;76;20301;-75
2023/03/08 01:45:50;;;;;;;;;;;25.10;77.10;;;;;;1842911;76;20174;-76
2023/03/08 01:48:22;;;;;;;;;;;25.20;77.20;;;;;;1854055;75;20239;-75
2023/03/08 01:50:52;;;;;;;;;;;25.20;76.00;;;;;;1852802;76;20176;-75
2023/03/08 01:53:26;;;;;;;;;;;25.30;75.70;;;;;;1863724;75;20488;-75
2023/03/08 01:55:56;;;;;;;;;;;25.30;75.60;;;;;;1863814;76;20497;-75
2023/03/08 01:58:27;;;;;;;;;;;25.30;75.70;;;;;;1825222;76;20158;-76
2023/03/08 02:00:57;;;;;;;;;;;25.40;74.80;;;;;;1820782;78;20229;-75
2023/03/08 02:03:29;;;;;;;;;;;25.40;74.60;;;;;;1837815;76;20213;-74
2023/03/08 02:05:59;;;;;;;;;;;25.40;75.00;;;;;;1817716;76;20213;-75
2023/03/08 02:11:14;;;;;;;;;;;25.50;74.70;;;;;;1794389;78;20183;-74
2023/03/08 02:13:44;;;;;;;;;;;25.60;74.40;;;;;;1829944;78;20350;-74
2023/03/08 02:16:18;;;;;;;;;;;25.60;73.70;;;;;;1825417;76;20242;-76
2023/03/08 02:18:55;;;;;;;;;;;25.60;73.60;;;;;;1815062;76;20203;-76
2023/03/08 02:21:27;;;;;;;;;;;25.70;73.50;;;;;;1798652;77;20250;-76
2023/03/08 02:23:59;;;;;;;;;;;25.70;73.30;;;;;;1806771;77;20183;-76
2023/03/08 02:26:29;;;;;;;;;;;25.80;73.40;;;;;;1815085;77;20174;-76
2023/03/08 02:28:59;;;;;;;;;;;25.80;73.40;;;;;;1808686;77;20607;-77
2023/03/08 02:31:29;;;;;;;;;;;25.90;73.40;;;;;;1808380;77;20223;-77
2023/03/08 02:34:06;;;;;;;;;;;25.90;73.60;;;;;;1784103;77;20236;-77
2023/03/08 02:36:39;;;;;;;;;;;26.00;73.70;;;;;;1804764;78;20559;-76
2023/03/08 02:39:10;;;;;;;;;;;26.00;73.50;;;;;;1805940;77;20175;-75
2023/03/08 02:41:45;;;;;;;;;;;26.10;73.40;;;;;;1804848;77;20790;-75
2023/03/08 02:44:12;;;;;;;;;;;26.20;73.80;;;;;;1820716;77;20702;-75
2023/03/08 02:46:42;;;;;;;;;;;26.30;73.70;;;;;;1816042;77;20244;-75
2023/03/08 02:49:36;;;;;;;;;;;26.30;73.00;;;;;;1797002;77;20381;-74
2023/03/08 02:52:06;;;;;;;;;;;26.40;72.70;;;;;;1805876;77;20314;-76
2023/03/08 02:54:36;;;;;;;;;;;26.60;72.50;;;;;;1794232;77;20248;-76
2023/03/08 02:57:07;;;;;;;;;;;26.60;72.20;;;;;;1799097;77;20310;-76
2023/03/08 02:59:37;;;;;;;;;;;26.70;72.70;;;;;;1821984;77;20493;-75
2023/03/08 03:02:07;;;;;;;;;;;26.80;71.60;;;;;;1818627;77;20211;-76
2023/03/08 03:04:38;;;;;;;;;;;26.90;70.10;;;;;;1805194;77;20284;-76
2023/03/08 03:07:08;;;;;;;;;;;27.10;70.20;;;;;;1802328;77;20179;-74
2023/03/08 03:09:38;;;;;;;;;;;27.20;69.70;;;;;;1827923;76;20225;-75
2023/03/08 03:12:10;;;;;;;;;;;27.20;68.90;;;;;;1836399;76;20459;-76
2023/03/08 03:14:47;;;;;;;;;;;27.40;68.10;;;;;;1829129;75;20449;-77
2023/03/08 03:17:22;;;;;;;;;;;27.40;68.70;;;;;;1827786;76;20280;-74
2023/03/08 03:19:52;;;;;;;;;;;27.60;68.60;;;;;;1805845;76;20220;-75
2023/03/08 03:22:22;;;;;;;;;;;27.70;68.90;;;;;;1850331;76;20176;-72
2023/03/08 03:24:52;;;;;;;;;;;27.80;67.70;;;;;;1856531;76;20187;-75
2023/03/08 03:27:23;;;;;;;;;;;27.90;67.10;;;;;;1861600;75;20219;-76
2023/03/08 03:32:51;;;;;;;;;;;28.00;67.40;;;;;;1808127;77;20244;-76
2023/03/08 03:35:21;;;;;;;;;;;28.10;67.40;;;;;;1793688;78;20248;-75
2023/03/08 03:38:02;;;;;;;;;;;28.10;67.10;;;;;;1806619;78;20213;-77
2023/03/08 03:40:29;;;;;;;;;;;28.20;67.20;;;;;;1855342;75;20380;-76
2023/03/08 03:42:59;;;;;;;;;;;28.40;67.20;;;;;;1831643;76;20584;-75
2023/03/08 03:45:29;;;;;;;;;;;28.50;67.40;;;;;;1843342;76;20267;-70
2023/03/08 03:48:00;;;;;;;;;;;28.60;66.80;;;;;;1851003;75;20220;-72
2023/03/08 03:50:40;;;;;;;;;;;28.70;66.80;;;;;;1855313;75;20246;-71
2023/03/08 03:55:59;;;;;;;;;;;28.90;63.90;;;;;;1828974;75;20470;-72
2023/03/08 03:58:29;;;;;;;;;;;28.90;64.20;;;;;;1841992;75;20393;-76
2023/03/08 04:01:01;;;;;;;;;;;29.00;66.40;;;;;;1843867;75;21146;-75
2023/03/08 04:03:34;;;;;;;;;;;29.00;65.50;;;;;;1860092;75;20543;-76
2023/03/08 04:06:11;;;;;;;;;;;29.00;65.50;;;;;;1854867;75;20179;-75
2023/03/08 04:08:42;;;;;;;;;;;29.20;65.30;;;;;;1852058;75;20192;-76
2023/03/08 04:11:15;;;;;;;;;;;29.20;63.40;;;;;;1859985;76;20175;-75
2023/03/08 04:13:48;;;;;;;;;;;29.30;64.50;;;;;;1833093;76;20183;-76
2023/03/08 04:16:22;;;;;;;;;;;29.40;62.90;;;;;;1858514;75;20564;-77
2023/03/08 04:18:59;;;;;;;;;;;29.50;63.60;;;;;;1850603;76;21175;-75
2023/03/08 04:21:29;;;;;;;;;;;29.60;62.20;;;;;;1842774;76;20203;-76
2023/03/08 04:23:59;;;;;;;;;;;29.70;62.00;;;;;;1865876;75;20223;-76
2023/03/08 04:26:29;;;;;;;;;;;29.80;60.60;;;;;;1861128;75;20172;-74
2023/03/08 04:29:01;;;;;;;;;;;29.90;59.60;;;;;;1857678;76;20534;-75
2023/03/08 04:31:35;;;;;;;;;;;30.00;60.00;;;;;;1846782;75;20292;-77
2023/03/08 04:34:03;;;;;;;;;;;30.10;60.70;;;;;;1849862;75;20692;-77
2023/03/08 04:36:33;;;;;;;;;;;30.20;60.40;;;;;;1861165;75;20371;-77
2023/03/08 04:39:03;;;;;;;;;;;30.20;59.40;;;;;;1848293;75;20311;-78
2023/03/08 04:41:37;;;;;;;;;;;30.30;59.60;;;;;;1826166;76;20192;-76
2023/03/08 04:44:08;;;;;;;;;;;30.40;61.70;;;;;;1829414;76;20170;-76
2023/03/08 04:46:41;;;;;;;;;;;30.50;58.90;;;;;;1851138;75;20228;-75
2023/03/08 04:49:11;;;;;;;;;;;30.50;62.70;;;;;;1843046;75;20579;-75
2023/03/08 04:51:41;;;;;;;;;;;30.50;58.80;;;;;;1852215;75;20197;-78
2023/03/08 04:54:11;;;;;;;;;;;30.60;58.00;;;;;;1851816;75;20114;-75
2023/03/08 04:56:42;;;;;;;;;;;30.60;58.90;;;;;;1841110;75;20178;-77
2023/03/08 04:59:12;;;;;;;;;;;30.60;58.50;;;;;;1852199;75;20207;-77
2023/03/08 05:01:42;;;;;;;;;;;30.60;59.00;;;;;;1854382;75;20180;-75
2023/03/08 05:04:12;;;;;;;;;;;30.70;58.30;;;;;;1866164;75;20227;-77
2023/03/08 05:06:42;;;;;;;;;;;30.70;57.80;;;;;;1858178;75;20188;-77
2023/03/08 05:09:12;;;;;;;;;;;30.80;58.50;;;;;;1860690;75;20226;-77
2023/03/08 05:11:43;;;;;;;;;;;30.80;57.40;;;;;;1860516;75;20392;-77
2023/03/08 05:14:18;;;;;;;;;;;30.90;57.60;;;;;;1862077;76;20258;-76
2023/03/08 05:16:51;;;;;;;;;;;31.00;57.20;;;;;;1868797;75;20766;-77
2023/03/08 05:22:22;;;;;;;;;;;31.00;59.20;;;;;;1867045;75;20196;-78
2023/03/08 05:24:55;;;;;;;;;;;31.10;58.70;;;;;;1861171;75;20170;-75
2023/03/08 05:27:25;;;;;;;;;;;31.20;59.10;;;;;;1864204;75;20282;-78
2023/03/08 05:29:55;;;;;;;;;;;31.20;58.00;;;;;;1859695;75;20267;-76
2023/03/08 05:32:26;;;;;;;;;;;31.30;57.90;;;;;;1859692;76;20464;-77
2023/03/08 05:35:08;;;;;;;;;;;31.30;57.50;;;;;;1864995;75;20277;-77
2023/03/08 05:37:38;;;;;;;;;;;31.40;57.30;;;;;;1863135;75;20482;-78
2023/03/08 05:40:09;;;;;;;;;;;31.50;57.60;;;;;;1862522;75;20176;-76
2023/03/08 05:42:40;;;;;;;;;;;31.60;56.20;;;;;;1852909;76;20176;-79
2023/03/08 05:45:12;;;;;;;;;;;31.60;55.80;;;;;;1855494;76;20599;-76
2023/03/08 05:47:42;;;;;;;;;;;31.60;56.20;;;;;;1856970;76;20213;-79
2023/03/08 05:50:12;;;;;;;;;;;31.70;58.20;;;;;;1849593;75;20231;-76
2023/03/08 05:52:42;;;;;;;;;;;31.70;58.90;;;;;;1838213;75;20307;-76
2023/03/08 05:55:14;;;;;;;;;;;31.70;57.70;;;;;;1835147;75;20194;-78
2023/03/08 05:57:45;;;;;;;;;;;31.80;58.30;;;;;;1859847;75;20509;-79
2023/03/08 06:00:20;;;;;;;;;;;31.90;57.00;;;;;;1853235;76;20588;-77
2023/03/08 06:02:46;;;;;;;;;;;31.90;57.80;;;;;;1851914;75;20207;-77
2023/03/08 06:05:44;;;;;;;;;;;32.00;56.80;;;;;;1858265;75;20127;-77
2023/03/08 06:08:28;;;;;;;;;;;32.00;55.50;;;;;;1836432;75;20266;-81
2023/03/08 06:10:58;;;;;;;;;;;32.10;56.70;;;;;;1867588;75;20192;-78
2023/03/08 06:13:28;;;;;;;;;;;32.10;53.90;;;;;;1851655;75;20182;-76
2023/03/08 06:15:59;;;;;;;;;;;32.20;55.00;;;;;;1866480;75;20233;-77
2023/03/08 06:18:32;;;;;;;;;;;32.10;54.50;;;;;;1874764;75;20669;-78
2023/03/08 06:21:15;;;;;;;;;;;32.10;53.30;;;;;;1854666;75;20197;-78
2023/03/08 06:26:44;;;;;;;;;;;32.20;55.10;;;;;;1870383;75;20454;-79
2023/03/08 06:29:15;;;;;;;;;;;32.30;52.30;;;;;;1842789;75;20204;-80
2023/03/08 06:31:49;;;;;;;;;;;32.20;53.60;;;;;;1860132;76;20347;-77
2023/03/08 06:34:37;;;;;;;;;;;32.30;54.80;;;;;;1839033;76;20172;-79
2023/03/08 06:37:07;;;;;;;;;;;32.30;53.00;;;;;;1877365;75;20310;-77
2023/03/08 06:39:37;;;;;;;;;;;32.30;52.20;;;;;;1847880;75;20252;-80
2023/03/08 06:42:23;;;;;;;;;;;32.30;50.40;;;;;;1856379;76;20269;-78
2023/03/08 06:44:54;;;;;;;;;;;32.40;50.80;;;;;;1839304;77;20172;-77
2023/03/08 06:47:27;;;;;;;;;;;32.40;52.00;;;;;;1838068;76;20209;-77
2023/03/08 06:50:11;;;;;;;;;;;32.40;47.40;;;;;;1835865;77;20214;-79
2023/03/08 06:58:59;;;;;;;;;;;32.40;49.80;;;;;;1693489;83;20195;-78
2023/03/08 07:01:29;;;;;;;;;;;32.50;51.70;;;;;;1708412;83;20707;-76
2023/03/08 07:03:59;;;;;;;;;;;32.50;51.00;;;;;;1695033;83;20463;-78
2023/03/08 07:06:29;;;;;;;;;;;32.50;51.50;;;;;;1691392;83;20258;-78
2023/03/08 07:09:03;;;;;;;;;;;32.50;51.90;;;;;;1705833;83;20316;-78
2023/03/08 07:11:41;;;;;;;;;;;32.50;51.40;;;;;;1702728;83;20234;-80
2023/03/08 07:14:07;;;;;;;;;;;32.50;52.30;;;;;;1692338;83;20335;-78
2023/03/08 07:16:37;;;;;;;;;;;32.50;49.60;;;;;;1704073;82;20271;-79
2023/03/08 07:19:10;;;;;;;;;;;32.50;51.00;;;;;;1704666;83;20378;-76
2023/03/08 07:21:43;;;;;;;;;;;32.40;51.90;;;;;;1712814;83;20234;-79
2023/03/08 07:24:11;;;;;;;;;;;32.40;51.70;;;;;;1710663;83;20228;-79
2023/03/08 07:26:42;;;;;;;;;;;32.40;52.20;;;;;;1702915;83;20338;-79
2023/03/08 07:29:12;;;;;;;;;;;32.30;52.10;;;;;;1709319;83;20249;-79
2023/03/08 07:31:44;;;;;;;;;;;32.30;51.10;;;;;;1777657;75;20247;-78
2023/03/08 07:34:22;;;;;;;;;;;32.30;51.20;;;;;;1852704;75;20174;-80
2023/03/08 07:36:57;;;;;;;;;;;32.30;51.20;;;;;;1864156;75;20315;-78
2023/03/08 07:39:27;;;;;;;;;;;32.20;51.80;;;;;;1867087;75;20232;-80
2023/03/08 07:41:57;;;;;;;;;;;32.20;52.20;;;;;;1853396;77;20487;-78
2023/03/08 07:44:30;;;;;;;;;;;32.20;52.70;;;;;;1873477;75;20302;-79
2023/03/08 07:46:59;;;;;;;;;;;32.20;52.10;;;;;;1903348;74;20200;-79
2023/03/08 07:49:29;;;;;;;;;;;32.20;51.90;;;;;;1895078;74;20628;-78
2023/03/08 07:52:00;;;;;;;;;;;32.20;53.10;;;;;;1882426;74;20239;-79
2023/03/08 07:54:30;;;;;;;;;;;32.20;52.00;;;;;;1866650;74;20188;-79
2023/03/08 07:57:01;;;;;;;;;;;32.30;54.00;;;;;;1860272;75;20263;-78
2023/03/08 07:59:31;;;;;;;;;;;32.30;54.70;;;;;;1884333;74;20191;-78
2023/03/08 08:02:01;;;;;;;;;;;32.30;52.00;;;;;;1881589;74;20187;-78
2023/03/08 08:04:31;;;;;;;;;;;32.30;52.70;;;;;;1878760;74;20290;-78
2023/03/08 08:07:05;;;;;;;;;;;32.30;52.60;;;;;;1866132;75;20256;-78
2023/03/08 08:09:36;;;;;;;;;;;32.20;52.00;;;;;;1866516;75;20351;-78
2023/03/08 08:12:06;;;;;;;;;;;32.20;51.70;;;;;;1858846;75;20236;-79
2023/03/08 08:14:36;;;;;;;;;;;32.20;50.50;;;;;;1859557;75;20200;-78
2023/03/08 08:17:07;;;;;;;;;;;32.20;52.20;;;;;;1867234;75;20240;-78
2023/03/08 08:19:37;;;;;;;;;;;32.10;52.30;;;;;;1858536;75;20559;-77
2023/03/08 08:22:06;;;;;;;;;;;32.10;51.70;;;;;;1835344;76;20566;-77
2023/03/08 08:24:37;;;;;;;;;;;32.10;51.00;;;;;;1857378;75;20255;-78
2023/03/08 08:27:07;;;;;;;;;;;32.10;53.10;;;;;;1864615;75;20657;-78
2023/03/08 08:29:44;;;;;;;;;;;32.10;52.90;;;;;;1858072;75;20737;-78
2023/03/08 08:32:08;;;;;;;;;;;32.10;53.60;;;;;;1855067;75;20224;-77
2023/03/08 08:34:39;;;;;;;;;;;32.10;51.90;;;;;;1857810;75;20319;-80
2023/03/08 08:37:12;;;;;;;;;;;32.10;52.50;;;;;;1853344;75;20701;-77
2023/03/08 08:39:42;;;;;;;;;;;32.10;52.40;;;;;;1862067;75;20561;-82
2023/03/08 08:45:15;;;;;;;;;;;32.10;51.60;;;;;;1848375;76;20247;-78
2023/03/08 08:47:46;;;;;;;;;;;32.10;51.60;;;;;;1859658;75;20655;-79
2023/03/08 08:50:17;;;;;;;;;;;32.00;52.30;;;;;;1826188;77;20217;-78
2023/03/08 08:52:47;;;;;;;;;;;32.10;52.10;;;;;;1833396;76;20303;-76
2023/03/08 08:55:18;;;;;;;;;;;32.10;52.70;;;;;;1812801;77;20210;-80
2023/03/08 08:57:48;;;;;;;;;;;32.10;51.80;;;;;;1826497;76;20204;-80
2023/03/08 09:00:18;;;;;;;;;;;32.10;52.10;;;;;;1840540;76;20193;-77
2023/03/08 09:02:49;;;;;;;;;;;32.10;52.50;;;;;;1835987;76;20184;-78
2023/03/08 09:05:20;;;;;;;;;;;32.10;52.20;;;;;;1831455;76;20192;-78
2023/03/08 09:07:52;;;;;;;;;;;32.10;52.90;;;;;;1811698;77;20192;-79
2023/03/08 09:10:22;;;;;;;;;;;32.10;51.50;;;;;;1852369;76;20217;-80
2023/03/08 09:12:52;;;;;;;;;;;32.10;51.70;;;;;;1842159;76;20295;-78
2023/03/08 09:15:24;;;;;;;;;;;32.00;51.80;;;;;;1832457;76;20241;-79
2023/03/08 09:17:54;;;;;;;;;;;32.00;52.50;;;;;;1808576;76;20627;-79
2023/03/08 09:20:31;;;;;;;;;;;32.00;52.80;;;;;;1802179;77;20229;-80
2023/03/08 09:23:01;;;;;;;;;;;31.90;53.50;;;;;;1841190;76;20468;-80
2023/03/08 09:25:32;;;;;;;;;;;31.90;52.40;;;;;;1827219;75;20254;-78
2023/03/08 09:28:02;;;;;;;;;;;31.90;52.30;;;;;;1838996;76;20230;-79
2023/03/08 09:30:32;;;;;;;;;;;31.90;53.70;;;;;;1866570;75;20178;-80
2023/03/08 09:33:13;;;;;;;;;;;31.80;51.90;;;;;;1862119;75;20582;-80
2023/03/08 09:35:45;;;;;;;;;;;31.80;51.30;;;;;;1883523;74;20347;-80
2023/03/08 09:38:15;;;;;;;;;;;31.80;52.20;;;;;;1850971;75;20191;-81
2023/03/08 09:44:16;;;;;;;;;;;31.80;53.50;;;;;;1860720;75;20735;-80
2023/03/08 09:46:48;;;;;;;;;;;31.70;51.70;;;;;;1854417;75;20200;-81
2023/03/08 09:49:26;;;;;;;;;;;31.70;52.60;;;;;;1869058;74;20215;-81
2023/03/08 09:52:02;;;;;;;;;;;31.60;52.30;;;;;;1856063;75;20812;-78
2023/03/08 09:54:42;;;;;;;;;;;31.60;53.00;;;;;;1879567;74;20315;-78
2023/03/08 09:57:16;;;;;;;;;;;31.50;53.40;;;;;;1887145;74;20195;-77
2023/03/08 09:59:48;;;;;;;;;;;31.50;52.70;;;;;;1887522;74;20265;-79
2023/03/08 10:02:20;;;;;;;;;;;31.40;52.50;;;;;;1877974;75;20647;-78
2023/03/08 10:05:11;;;;;;;;;;;31.50;54.20;;;;;;1869856;73;20212;-78
2023/03/08 10:10:50;;;;;;;;;;;31.40;53.70;;;;;;1807657;78;20461;-76
2023/03/08 10:13:25;;;;;;;;;;;31.40;53.50;;;;;;1787469;77;20270;-76
2023/03/08 10:16:04;;;;;;;;;;;31.40;53.50;;;;;;1884456;74;20413;-77
2023/03/08 10:18:54;;;;;;;;;;;31.30;54.20;;;;;;1887470;74;20190;-75
2023/03/08 10:21:23;;;;;;;;;;;31.30;53.80;;;;;;1901603;74;20181;-88
2023/03/08 10:24:15;;;;;;;;;;;31.30;53.50;;;;;;1882085;74;20260;-85
2023/03/08 10:26:45;;;;;;;;;;;31.20;54.30;;;;;;1885787;75;20594;-83
2023/03/08 10:29:16;;;;;;;;;;;31.20;54.20;;;;;;1866475;75;20181;-87
2023/03/08 10:35:27;;;;;;;;;;;31.10;54.40;;;;;;1869852;75;20177;-85
2023/03/08 10:37:56;;;;;;;;;;;31.10;54.80;;;;;;1869504;75;20275;-86
2023/03/08 10:40:36;;;;;;;;;;;31.00;55.00;;;;;;1894867;75;20151;-86
2023/03/08 10:43:06;;;;;;;;;;;31.00;54.90;;;;;;1876019;75;20454;-84
2023/03/08 10:45:36;;;;;;;;;;;31.00;54.90;;;;;;1899524;75;20560;-85
2023/03/08 10:48:10;;;;;;;;;;;31.00;54.70;;;;;;1880840;75;20162;-86
2023/03/08 10:50:40;;;;;;;;;;;30.90;54.90;;;;;;1889381;75;20434;-85
2023/03/08 10:53:11;;;;;;;;;;;30.90;54.90;;;;;;1899825;74;20202;-85
2023/03/08 10:55:42;;;;;;;;;;;30.80;54.90;;;;;;1881852;74;20196;-84
2023/03/08 10:58:29;;;;;;;;;;;30.80;55.10;;;;;;1887079;75;20205;-85
2023/03/08 11:01:00;;;;;;;;;;;30.80;55.30;;;;;;1885645;74;20268;-86
2023/03/08 11:03:31;;;;;;;;;;;30.70;55.40;;;;;;1877478;75;20242;-86
2023/03/08 11:06:05;;;;;;;;;;;30.70;55.60;;;;;;1884406;75;20178;-85
2023/03/08 11:08:36;;;;;;;;;;;30.60;55.70;;;;;;1885205;75;20314;-85
2023/03/08 11:11:08;;;;;;;;;;;30.60;55.70;;;;;;1891980;75;20182;-86
2023/03/08 11:13:40;;;;;;;;;;;30.60;55.80;;;;;;1880423;75;20082;-84
2023/03/08 11:16:14;;;;;;;;;;;30.60;56.00;;;;;;1893515;75;20186;-86
2023/03/08 11:18:48;;;;;;;;;;;30.50;56.00;;;;;;1885910;75;20182;-85
2023/03/08 11:21:20;;;;;;;;;;;30.50;56.00;;;;;;1866455;76;20224;-85
2023/03/08 11:23:51;;;;;;;;;;;30.50;56.20;;;;;;1821052;76;20205;-86
2023/03/08 11:26:22;;;;;;;;;;;30.50;56.50;;;;;;1805566;77;20425;-86
2023/03/08 11:28:53;;;;;;;;;;;30.40;56.60;;;;;;1823783;78;20214;-85
2023/03/08 11:31:24;;;;;;;;;;;30.40;56.80;;;;;;1847920;76;20713;-86
2023/03/08 11:34:01;;;;;;;;;;;30.40;56.90;;;;;;1826237;78;20226;-85
2023/03/08 11:39:55;;;;;;;;;;;30.30;57.00;;;;;;1869809;76;20190;-85
2023/03/08 11:43:00;;;;;;;;;;;;;;;;;;;;;
2023/03/08 11:45:23;;;;;;;;;;;30.20;57.30;;;;;;1871083;76;20488;-85
2023/03/08 11:47:57;;;;;;;;;;;30.20;57.30;;;;;;1859434;76;20207;-85
2023/03/08 11:50:28;;;;;;;;;;;30.20;57.40;;;;;;1824981;77;20199;-85
2023/03/08 11:53:12;;;;;;;;;;;30.20;57.50;;;;;;1838114;77;20534;-85
2023/03/08 11:55:55;;;;;;;;;;;30.10;57.50;;;;;;1800392;78;20214;-85
2023/03/08 11:58:26;;;;;;;;;;;30.10;57.60;;;;;;1790226;78;20226;-85
2023/03/08 12:00:57;;;;;;;;;;;30.10;57.60;;;;;;1812103;77;20538;-86
2023/03/08 12:03:28;;;;;;;;;;;30.10;57.70;;;;;;1812969;77;20463;-85
2023/03/08 12:06:02;;;;;;;;;;;30.00;57.70;;;;;;1818540;77;20284;-86
2023/03/08 12:08:36;;;;;;;;;;;30.00;57.90;;;;;;1833230;77;20170;-85
2023/03/08 12:11:13;;;;;;;;;;;30.00;58.20;;;;;;1878940;75;20176;-85
2023/03/08 12:13:51;;;;;;;;;;;30.00;58.30;;;;;;1854655;75;20168;-85
2023/03/08 12:16:25;;;;;;;;;;;30.00;58.50;;;;;;1891331;75;20251;-85
2023/03/08 12:19:05;;;;;;;;;;;29.90;58.40;;;;;;1897345;75;20213;-85
2023/03/08 12:21:43;;;;;;;;;;;29.90;58.70;;;;;;1893809;74;20253;-87
2023/03/08 12:24:30;;;;;;;;;;;29.80;58.60;;;;;;1875597;75;20225;-85
2023/03/08 12:27:36;;;;;;;;;;;29.80;58.60;;;;;;1859883;75;20198;-83
2023/03/08 12:30:13;;;;;;;;;;;29.80;58.50;;;;;;1881594;75;20671;-86
2023/03/08 12:33:07;;;;;;;;;;;29.80;58.50;;;;;;1861387;76;20344;-85
2023/03/08 12:36:00;;;;;;;;;;;29.80;58.50;;;;;;1851720;76;20290;-84
2023/03/08 12:38:32;;;;;;;;;;;29.80;58.50;;;;;;1831833;77;20223;-85
2023/03/08 12:41:05;;;;;;;;;;;29.70;58.40;;;;;;1848800;77;20211;-86
2023/03/08 12:43:37;;;;;;;;;;;29.70;58.60;;;;;;1809069;77;20463;-84
2023/03/08 12:46:08;;;;;;;;;;;29.70;58.60;;;;;;1814954;77;20707;-84
2023/03/08 12:48:50;;;;;;;;;;;29.70;58.60;;;;;;1798184;77;20444;-87
2023/03/08 12:51:48;;;;;;;;;;;;;;;;;;;;;
2023/03/08 13:03:40;;;;;;;;;;;29.60;58.90;;;;;;1817830;77;20311;-87
2023/03/08 13:09:20;;;;;;;;;;;29.50;59.00;;;;;;1811974;77;20488;-84
2023/03/08 13:11:56;;;;;;;;;;;29.50;59.10;;;;;;1846541;77;20367;-85
2023/03/08 13:20:20;;;;;;;;;;;29.50;59.20;;;;;;1883542;74;20558;-86
2023/03/08 13:26:00;;;;;;;;;;;29.50;59.30;;;;;;1897889;73;20228;-85
2023/03/08 13:28:40;;;;;;;;;;;29.40;59.30;;;;;;1887346;74;20188;-84
2023/03/08 13:31:15;;;;;;;;;;;29.40;59.40;;;;;;1899421;73;20128;-85
2023/03/08 13:34:05;;;;;;;;;;;29.40;59.40;;;;;;1902195;73;20211;-85
2023/03/08 13:36:33;;;;;;;;;;;29.40;59.50;;;;;;1898259;73;20200;-84
2023/03/08 13:42:11;;;;;;;;;;;29.40;59.60;;;;;;1897715;73;20718;-84
2023/03/08 13:45:01;;;;;;;;;;;;;;;;;;;;;
2023/03/08 13:50:28;;;;;;;;;;;29.30;59.70;;;;;;1879748;75;20234;-84
2023/03/08 13:53:02;;;;;;;;;;;29.30;59.70;;;;;;1869150;75;20440;-83
2023/03/08 13:55:36;;;;;;;;;;;29.20;59.80;;;;;;1897467;74;20197;-83
2023/03/08 13:58:10;;;;;;;;;;;29.20;59.80;;;;;;1898439;73;20251;-84
2023/03/08 14:00:42;;;;;;;;;;;29.20;59.80;;;;;;1890458;73;20436;-85
2023/03/08 14:03:19;;;;;;;;;;;29.20;59.90;;;;;;1858510;76;20227;-82
2023/03/08 14:05:49;;;;;;;;;;;29.10;60.00;;;;;;1900226;74;20262;-83
2023/03/08 14:11:02;;;;;;;;;;;29.10;60.20;;;;;;1801421;76;20171;-83
2023/03/08 14:13:34;;;;;;;;;;;29.10;60.20;;;;;;1878937;75;20200;-83
2023/03/08 14:16:08;;;;;;;;;;;29.10;60.20;;;;;;1883310;75;20575;-85
2023/03/08 14:18:52;;;;;;;;;;;29.10;60.40;;;;;;1882412;75;20190;-84
2023/03/08 14:21:27;;;;;;;;;;;29.10;60.30;;;;;;1874465;74;20524;-84
2023/03/08 14:26:56;;;;;;;;;;;29.00;60.30;;;;;;1894521;75;20238;-86
2023/03/08 14:29:27;;;;;;;;;;;29.00;60.50;;;;;;1883082;75;20235;-85
2023/03/08 14:32:02;;;;;;;;;;;29.00;60.90;;;;;;1899352;74;20207;-85
2023/03/08 14:34:49;;;;;;;;;;;28.90;60.90;;;;;;1884390;74;20202;-87
2023/03/08 14:37:23;;;;;;;;;;;28.90;61.10;;;;;;1882014;75;20210;-85
2023/03/08 14:39:54;;;;;;;;;;;28.90;61.10;;;;;;1877420;75;20375;-84
2023/03/08 14:42:26;;;;;;;;;;;28.90;61.10;;;;;;1896245;75;20553;-84
2023/03/08 14:45:01;;;;;;;;;;;28.90;61.20;;;;;;1916160;74;20352;-87
2023/03/08 14:47:32;;;;;;;;;;;28.80;61.30;;;;;;1901074;75;20245;-83
2023/03/08 14:50:03;;;;;;;;;;;28.80;61.30;;;;;;1879091;75;20173;-86
2023/03/08 14:52:34;;;;;;;;;;;28.80;61.30;;;;;;1904511;73;20377;-85
2023/03/08 14:55:06;;;;;;;;;;;28.80;61.30;;;;;;1886902;73;20219;-82
2023/03/08 14:57:35;;;;;;;;;;;28.80;61.30;;;;;;1891437;74;20438;-85
2023/03/08 15:00:12;;;;;;;;;;;28.80;61.50;;;;;;1914262;73;20609;-85
2023/03/08 15:42:15;;;;;;;;;;;28.60;63.30;;;;;;1649405;84;20303;-86
2023/03/08 15:51:31;;;;;;;;;;;28.40;63.70;;;;;;1778509;80;20136;-84
2023/03/08 15:54:35;;;;;;;;;;;28.40;64.50;;;;;;1657115;86;20374;-85
2023/03/08 15:57:36;;;;;;;;;;;28.40;64.70;;;;;;1941535;72;20255;-84
2023/03/08 16:00:00;;;;;;;;;;;28.30;64.60;;;;;;1855794;74;20218;-85
2023/03/08 16:02:33;;;;;;;;;;;28.30;64.70;;;;;;1876041;76;20154;-85
2023/03/08 16:05:04;;;;;;;;;;;28.30;65.20;;;;;;1890634;75;20553;-85
2023/03/08 16:07:43;;;;;;;;;;;28.30;65.10;;;;;;1894529;75;20199;-87
2023/03/08 16:10:13;;;;;;;;;;;28.20;65.20;;;;;;1886987;75;20205;-86
2023/03/08 16:12:43;;;;;;;;;;;28.30;65.60;;;;;;1891526;75;20507;-86
2023/03/08 16:15:18;;;;;;;;;;;28.20;65.70;;;;;;1883832;75;20170;-86
2023/03/08 16:17:48;;;;;;;;;;;28.20;66.00;;;;;;1888626;75;20203;-85
2023/03/08 16:23:21;;;;;;;;;;;28.20;67.00;;;;;;1847298;77;20212;-85
2023/03/08 16:26:01;;;;;;;;;;;28.10;67.30;;;;;;1886444;75;20224;-85
2023/03/08 16:28:32;;;;;;;;;;;28.10;67.80;;;;;;1884913;75;20173;-85
2023/03/08 16:31:02;;;;;;;;;;;28.10;69.00;;;;;;1895235;75;20204;-86
2023/03/08 16:36:41;;;;;;;;;;;28.10;70.20;;;;;;1919280;75;20217;-84
2023/03/08 16:39:14;;;;;;;;;;;28.00;70.30;;;;;;1727639;81;20150;-85
2023/03/08 17:04:59;;;;;;;;;;;27.80;73.80;;;;;;1892018;74;20211;-81
2023/03/08 17:07:29;;;;;;;;;;;27.60;78.80;;;;;;1853582;77;20176;-83
2023/03/08 17:09:59;;;;;;;;;;;27.60;78.80;;;;;;1853358;77;20790;-81
2023/03/08 17:12:29;;;;;;;;;;;27.50;80.00;;;;;;1852581;77;20238;-82
2023/03/08 17:14:59;;;;;;;;;;;27.50;79.10;;;;;;1825555;79;20182;-82
2023/03/08 17:17:29;;;;;;;;;;;27.40;80.40;;;;;;1855788;77;20204;-82
2023/03/08 17:19:59;;;;;;;;;;;27.40;80.70;;;;;;1818270;79;20251;-84
2023/03/08 17:22:32;;;;;;;;;;;27.30;80.70;;;;;;1845127;76;20256;-84